Time;durP1;ratioP1;P1;durP2;ratioP2;P2;SDS_P1;SDS_P2;PMS_P1;PMS_P2;Temp;Humidity;BMP_temperature;BMP_pressure;BME280_temperature;BME280_humidity;BME280_pressure;Samples;Min_cycle;Max_cycle;Signal;HPM_P1;HPM_P2
2023/12/08 00:00:14;;;;;;;31.17;17.90;;;;;;;3.45;75.76;101595.50;4935975;28;20089;-80
2023/12/08 00:02:41;;;;;;;32.00;18.27;;;;;;;3.60;75.65;101624.56;4956133;28;20065;-81
2023/12/08 00:05:09;;;;;;;24.90;16.52;;;;;;;3.60;75.56;101626.38;4970064;28;20058;-80
2023/12/08 00:07:36;;;;;;;29.60;15.60;;;;;;;3.43;75.44;101616.59;4975553;28;20046;-80
2023/12/08 00:10:03;;;;;;;27.13;17.10;;;;;;;3.21;75.84;101580.75;4961798;28;20135;-82
2023/12/08 00:12:30;;;;;;;25.48;17.70;;;;;;;3.54;75.99;101616.94;4974113;28;20073;-79
2023/12/08 00:14:57;;;;;;;25.02;17.70;;;;;;;3.42;76.49;101609.59;4971192;28;20492;-82
2023/12/08 00:17:27;;;;;;;25.83;17.00;;;;;;;3.50;76.34;101620.66;4970105;28;20058;-80
2023/12/08 00:19:54;;;;;;;26.85;18.73;;;;;;;3.45;76.32;101601.63;4970612;28;20050;-80
2023/12/08 00:22:27;;;;;;;24.85;18.58;;;;;;;3.26;76.55;101563.97;4947758;28;20394;-82
2023/12/08 00:24:54;;;;;;;27.92;17.98;;;;;;;3.33;76.50;101565.41;4925817;28;20422;-82
2023/12/08 00:27:34;;;;;;;26.25;18.85;;;;;;;3.50;76.53;101598.81;4926749;28;20056;-83
2023/12/08 00:30:12;;;;;;;26.98;16.85;;;;;;;3.26;75.05;101577.09;4913090;28;20326;-82
2023/12/08 00:32:39;;;;;;;25.52;16.92;;;;;;;3.54;74.48;101619.59;4960666;28;20369;-82
2023/12/08 00:35:12;;;;;;;25.25;17.02;;;;;;;3.27;75.43;101591.91;4940696;28;20346;-83
2023/12/08 00:37:49;;;;;;;28.95;16.90;;;;;;;3.25;76.08;101594.56;4929651;28;20584;-81
2023/12/08 00:40:20;;;;;;;31.58;15.88;;;;;;;3.02;75.98;101550.97;4916259;28;20234;-80
2023/12/08 00:42:47;;;;;;;28.88;16.85;;;;;;;3.48;75.85;101617.22;4943228;28;20120;-81
2023/12/08 00:45:15;;;;;;;25.67;16.55;;;;;;;3.05;75.91;101545.56;4962720;28;20149;-80
2023/12/08 00:47:41;;;;;;;27.77;17.83;;;;;;;3.33;75.79;101583.78;4967514;28;20045;-80
2023/12/08 00:50:09;;;;;;;25.52;16.85;;;;;;;3.37;76.06;101587.97;4965807;28;20049;-81
2023/12/08 00:52:40;;;;;;;23.33;15.98;;;;;;;3.43;75.98;101603.47;4967170;28;20405;-80
2023/12/08 00:55:07;;;;;;;26.35;16.58;;;;;;;3.49;76.28;101576.91;4966445;28;20046;-80
2023/12/08 00:57:37;;;;;;;28.98;17.15;;;;;;;3.71;75.72;101566.31;4962485;28;20056;-84
2023/12/08 01:00:10;;;;;;;25.77;17.05;;;;;;;3.58;74.95;101513.50;4970731;28;20462;-79
2023/12/08 01:02:39;;;;;;;29.35;16.95;;;;;;;3.84;74.07;101550.88;4968638;28;20693;-81
2023/12/08 01:05:07;;;;;;;24.70;16.38;;;;;;;3.90;74.36;101561.09;4967759;28;20119;-80
2023/12/08 01:07:34;;;;;;;21.08;16.08;;;;;;;3.88;73.63;101562.09;4964960;28;20490;-79
2023/12/08 01:10:01;;;;;;;22.40;15.95;;;;;;;4.08;73.30;101567.28;4962387;28;20519;-82
2023/12/08 01:12:33;;;;;;;24.70;15.13;;;;;;;4.06;73.54;101569.97;4933641;28;20435;-83
2023/12/08 01:15:05;;;;;;;22.73;16.65;;;;;;;3.94;73.25;101572.34;4922245;28;20046;-81
2023/12/08 01:17:37;;;;;;;21.92;15.40;;;;;;;3.57;73.33;101516.22;4969082;28;20511;-83
2023/12/08 01:20:07;;;;;;;27.48;15.27;;;;;;;3.76;74.09;101571.38;4968384;28;20081;-80
2023/12/08 01:22:35;;;;;;;24.65;14.00;;;;;;;3.39;75.01;101520.50;4976386;28;20053;-83
2023/12/08 01:25:02;;;;;;;22.50;15.27;;;;;;;2.86;74.58;101450.22;4969060;28;20129;-81
2023/12/08 01:27:28;;;;;;;19.88;12.50;;;;;;;3.60;74.82;101576.47;4966082;28;20657;-82
2023/12/08 01:29:58;;;;;;;22.50;13.95;;;;;;;3.15;74.93;101494.41;4963425;28;20839;-82
2023/12/08 01:32:25;;;;;;;19.77;13.70;;;;;;;3.42;75.00;101549.22;4977611;28;20046;-82
2023/12/08 01:35:00;;;;;;;19.33;13.80;;;;;;;3.09;75.22;101514.84;4950661;28;20459;-82
2023/12/08 01:37:26;;;;;;;22.17;12.63;;;;;;;2.82;74.96;101474.91;4971602;28;20490;-81
2023/12/08 01:39:56;;;;;;;19.42;13.55;;;;;;;3.26;74.90;101553.47;4974392;28;20056;-83
2023/12/08 01:42:26;;;;;;;21.27;14.05;;;;;;;3.51;74.90;101574.25;4975237;28;20541;-81
2023/12/08 01:44:53;;;;;;;19.63;13.07;;;;;;;3.25;75.26;101536.00;4970112;28;20058;-81
2023/12/08 01:47:20;;;;;;;17.33;12.38;;;;;;;3.48;75.26;101579.63;4976745;28;20480;-80
2023/12/08 01:49:48;;;;;;;28.17;13.85;;;;;;;2.93;74.92;101478.75;4971882;28;20120;-82
2023/12/08 01:52:21;;;;;;;23.17;14.55;;;;;;;3.50;75.32;101572.56;4970183;28;20138;-81
2023/12/08 01:54:57;;;;;;;21.38;12.07;;;;;;;3.24;75.41;101547.44;4969325;28;20230;-82
2023/12/08 01:57:24;;;;;;;24.83;13.32;;;;;;;3.46;75.63;101579.69;4970118;28;20053;-83
2023/12/08 01:59:52;;;;;;;27.52;12.90;;;;;;;3.36;75.94;101571.34;4974310;28;20060;-83
2023/12/08 02:02:22;;;;;;;26.77;13.70;;;;;;;2.83;76.26;101468.72;4961881;28;20057;-81
2023/12/08 02:04:53;;;;;;;23.73;11.95;;;;;;;2.95;75.27;101455.94;4957626;28;20054;-81
2023/12/08 02:07:21;;;;;;;21.77;11.70;;;;;;;3.63;75.05;101543.03;4982598;28;20053;-82
2023/12/08 02:09:48;;;;;;;18.60;12.20;;;;;;;3.70;74.54;101532.25;4983533;28;20265;-83
2023/12/08 02:12:17;;;;;;;18.63;11.52;;;;;;;3.83;73.83;101512.38;4985187;28;20050;-81
2023/12/08 02:14:52;;;;;;;16.50;11.07;;;;;;;3.45;73.37;101444.13;4978379;28;20046;-81
2023/12/08 02:17:24;;;;;;;20.48;11.45;;;;;;;4.07;73.18;101516.50;4980687;28;20456;-81
2023/12/08 02:19:53;;;;;;;16.75;10.65;;;;;;;3.97;72.89;101514.38;4971504;28;20389;-82
2023/12/08 02:22:28;;;;;;;16.30;10.68;;;;;;;3.09;73.20;101379.25;4976482;28;20042;-81
2023/12/08 02:25:02;;;;;;;12.95;9.50;;;;;;;3.83;72.48;101488.75;4937613;28;20430;-82
2023/12/08 02:27:29;;;;;;;15.52;9.65;;;;;;;3.78;71.98;101485.47;4944910;28;20087;-82
2023/12/08 02:29:57;;;;;;;14.60;9.80;;;;;;;3.62;72.01;101473.06;4968514;28;20399;-82
2023/12/08 02:32:49;;;;;;;13.85;9.75;;;;;;;3.83;72.49;101502.72;4964407;28;20786;-80
2023/12/08 02:35:20;;;;;;;11.95;8.95;;;;;;;3.55;72.34;101455.88;4973673;28;20488;-81
2023/12/08 02:37:50;;;;;;;18.67;9.75;;;;;;;3.72;73.40;101483.16;4965897;28;20346;-81
2023/12/08 02:40:18;;;;;;;18.00;8.95;;;;;;;3.75;73.90;101472.50;4972826;28;20049;-81
2023/12/08 02:42:47;;;;;;;9.82;8.27;;;;;;;3.31;73.81;101397.50;4969036;28;20054;-82
2023/12/08 02:45:16;;;;;;;;;;;;;;;3.64;74.36;101465.97;4973839;28;20365;-83
2023/12/08 02:47:43;;;;;;;11.45;9.02;;;;;;;3.48;74.54;101433.47;4974230;28;20707;-81
2023/12/08 02:50:12;;;;;;;17.25;9.25;;;;;;;3.57;74.81;101458.47;4962645;28;20060;-82
2023/12/08 02:52:38;;;;;;;11.60;8.68;;;;;;;3.55;74.91;101461.16;4957261;28;20062;-81
2023/12/08 02:55:06;;;;;;;11.93;8.48;;;;;;;3.52;74.88;101458.66;4962966;28;20046;-80
2023/12/08 02:57:33;;;;;;;8.43;7.22;;;;;;;3.45;72.72;101420.50;4932205;28;20502;-82
2023/12/08 03:00:00;;;;;;;12.85;7.65;;;;;;;3.32;73.17;101416.72;4930403;28;20057;-82
2023/12/08 03:02:30;;;;;;;12.43;8.75;;;;;;;3.41;73.20;101445.16;4954411;28;20514;-83
2023/12/08 03:05:02;;;;;;;9.43;6.82;;;;;;;3.55;72.90;101448.00;4967479;28;20061;-83
2023/12/08 03:07:30;;;;;;;11.10;7.60;;;;;;;3.48;72.48;101443.97;4971766;28;20411;-83
2023/12/08 03:09:56;;;;;;;11.15;8.07;;;;;;;3.47;73.84;101446.66;4971164;28;20328;-82
2023/12/08 03:12:23;;;;;;;9.27;7.07;;;;;;;3.39;73.65;101450.47;4954816;28;20050;-80
2023/12/08 03:14:50;;;;;;;10.82;7.68;;;;;;;3.31;73.76;101446.50;4938815;28;20052;-81
2023/12/08 03:17:34;;;;;;;11.00;7.50;;;;;;;3.27;73.26;101440.53;4962652;28;20049;-80
2023/12/08 03:20:01;;;;;;;9.75;6.82;;;;;;;3.35;73.77;101445.44;4961315;28;20674;-81
2023/12/08 03:22:30;;;;;;;12.05;7.32;;;;;;;3.21;72.73;101420.69;4958218;28;20120;-81
2023/12/08 03:24:57;;;;;;;11.02;7.05;;;;;;;3.24;73.10;101413.59;4961952;28;20136;-81
2023/12/08 03:27:27;;;;;;;10.40;7.18;;;;;;;3.56;73.00;101430.47;4985277;28;20050;-80
2023/12/08 03:29:55;;;;;;;15.85;6.82;;;;;;;3.62;72.37;101399.53;4967868;28;20068;-81
2023/12/08 03:32:21;;;;;;;9.50;6.82;;;;;;;3.70;71.80;101403.59;4960481;28;20042;-82
2023/12/08 03:34:48;;;;;;;8.15;6.15;;;;;;;3.75;71.12;101414.72;4965309;28;20583;-80
2023/12/08 03:37:15;;;;;;;8.38;5.93;;;;;;;3.64;72.11;101416.09;4966079;28;20611;-81
2023/12/08 03:39:44;;;;;;;10.88;6.55;;;;;;;3.60;73.16;101421.56;4966510;28;20354;-82
2023/12/08 03:42:12;;;;;;;7.35;5.20;;;;;;;3.70;72.37;101409.69;4955722;28;20145;-81
2023/12/08 03:44:42;;;;;;;8.88;6.00;;;;;;;3.70;71.63;101390.44;4958944;28;20054;-80
2023/12/08 03:47:16;;;;;;;7.90;5.63;;;;;;;3.61;71.56;101366.31;4964508;28;20521;-82
2023/12/08 03:49:43;;;;;;;6.78;4.95;;;;;;;3.76;70.67;101390.16;4973850;28;20085;-82
2023/12/08 03:52:10;;;;;;;6.50;5.25;;;;;;;3.59;70.60;101365.56;4946516;28;20530;-81
2023/12/08 03:54:37;;;;;;;12.95;5.72;;;;;;;3.69;71.17;101376.47;4963006;28;20199;-81
2023/12/08 03:57:04;;;;;;;5.90;4.75;;;;;;;3.63;71.85;101369.72;4949887;28;20496;-79
2023/12/08 03:59:30;;;;;;;6.00;5.03;;;;;;;3.59;72.14;101383.06;4960312;28;20140;-80
2023/12/08 04:01:58;;;;;;;5.80;4.50;;;;;;;3.47;71.01;101342.53;4961996;28;20131;-82
2023/12/08 04:04:29;;;;;;;6.38;5.03;;;;;;;3.63;70.44;101361.84;4970081;28;20072;-82
2023/12/08 04:06:56;;;;;;;6.93;5.18;;;;;;;3.71;69.58;101376.38;4970758;28;20046;-80
2023/12/08 04:09:23;;;;;;;8.40;5.35;;;;;;;3.76;68.74;101369.13;4959632;28;20046;-83
2023/12/08 04:11:59;;;;;;;6.25;4.70;;;;;;;3.66;71.20;101373.13;4973864;28;20407;-82
2023/12/08 04:14:26;;;;;;;7.57;5.13;;;;;;;3.46;70.61;101361.81;4971552;28;20053;-82
2023/12/08 04:16:52;;;;;;;9.45;5.50;;;;;;;3.57;70.52;101374.44;4963576;28;20108;-82
2023/12/08 04:19:20;;;;;;;7.28;5.35;;;;;;;3.32;70.62;101332.72;4960746;28;20065;-80
2023/12/08 04:21:47;;;;;;;7.43;5.28;;;;;;;3.60;70.12;101385.63;4961895;28;20115;-80
2023/12/08 04:24:14;;;;;;;7.15;5.18;;;;;;;3.50;69.99;101373.03;4974227;28;20049;-80
2023/12/08 04:26:44;;;;;;;6.70;5.55;;;;;;;3.61;70.05;101389.09;4968296;28;20046;-81
2023/12/08 04:29:17;;;;;;;11.70;6.65;;;;;;;3.71;69.69;101382.47;4971041;28;20452;-82
2023/12/08 04:31:43;;;;;;;8.57;6.45;;;;;;;3.68;70.45;101374.75;4966492;28;20661;-81
2023/12/08 04:34:10;;;;;;;7.47;6.13;;;;;;;3.70;70.96;101366.81;4965583;28;20073;-81
2023/12/08 04:36:41;;;;;;;10.45;8.68;;;;;;;3.77;71.47;101382.22;4968127;28;20061;-81
2023/12/08 04:39:10;;;;;;;8.77;6.22;;;;;;;3.87;71.26;101387.88;4968385;28;20874;-79
2023/12/08 04:41:37;;;;;;;9.27;6.30;;;;;;;3.93;70.35;101392.84;4960276;28;20045;-82
2023/12/08 04:44:04;;;;;;;7.85;6.32;;;;;;;3.93;70.05;101382.34;4967282;28;20049;-80
2023/12/08 04:46:30;;;;;;;9.75;6.43;;;;;;;3.95;70.69;101385.72;4978096;28;20038;-81
2023/12/08 04:48:57;;;;;;;10.40;6.32;;;;;;;3.83;71.42;101370.53;4977874;28;20059;-80
2023/12/08 04:51:24;;;;;;;10.40;6.60;;;;;;;3.98;72.15;101395.22;4966909;28;20056;-79
2023/12/08 04:53:58;;;;;;;12.25;7.28;;;;;;;3.88;71.81;101378.19;4970609;28;20561;-80
2023/12/08 04:56:29;;;;;;;8.82;6.68;;;;;;;3.85;71.28;101364.28;4960469;28;20108;-82
2023/12/08 04:58:58;;;;;;;8.63;6.95;;;;;;;3.64;71.00;101318.06;4963600;28;20053;-79
2023/12/08 05:01:29;;;;;;;10.63;7.03;;;;;;;4.00;70.46;101352.16;4964540;28;20514;-81
2023/12/08 05:03:56;;;;;;;8.82;6.85;;;;;;;4.15;70.40;101363.72;4970678;28;20172;-82
2023/12/08 05:06:26;;;;;;;8.60;6.65;;;;;;;3.99;69.64;101342.59;4970303;28;20708;-80
2023/12/08 05:08:53;;;;;;;13.20;7.57;;;;;;;4.07;69.56;101364.09;4967643;28;20119;-82
2023/12/08 05:11:21;;;;;;;10.05;6.97;;;;;;;4.04;69.74;101374.75;4974686;28;20262;-82
2023/12/08 05:13:49;;;;;;;8.52;7.20;;;;;;;4.03;69.91;101362.56;4976903;28;20377;-83
2023/12/08 05:16:16;;;;;;;10.88;7.72;;;;;;;3.40;69.90;101271.09;4972896;28;20407;-80
2023/12/08 05:18:43;;;;;;;10.45;6.97;;;;;;;4.03;69.47;101362.56;4971503;28;20493;-82
2023/12/08 05:21:10;;;;;;;12.07;7.45;;;;;;;3.95;69.70;101348.94;4955120;28;20420;-81
2023/12/08 05:23:37;;;;;;;10.93;7.50;;;;;;;3.98;70.62;101359.31;4943640;28;20447;-82
2023/12/08 05:26:05;;;;;;;11.05;7.15;;;;;;;4.13;69.69;101378.72;4963841;28;20054;-81
2023/12/08 05:28:31;;;;;;;10.25;7.10;;;;;;;3.97;69.92;101354.13;4961116;28;20057;-82
2023/12/08 05:30:59;;;;;;;9.02;6.85;;;;;;;3.87;70.93;101330.06;4971563;28;20470;-80
2023/12/08 05:33:25;;;;;;;8.38;7.38;;;;;;;4.07;70.43;101357.97;4979150;28;20461;-80
2023/12/08 05:35:53;;;;;;;10.93;7.60;;;;;;;4.08;70.22;101359.69;4964590;28;20144;-81
2023/12/08 05:38:19;;;;;;;12.18;7.93;;;;;;;4.09;70.56;101373.69;4964690;28;20454;-81
2023/12/08 05:40:46;;;;;;;9.70;7.45;;;;;;;3.88;70.78;101337.00;4976453;28;20575;-81
2023/12/08 05:43:16;;;;;;;10.07;7.97;;;;;;;4.00;70.54;101373.19;4977274;28;20527;-81
2023/12/08 05:45:43;;;;;;;14.10;8.90;;;;;;;3.63;70.69;101332.13;4972519;28;20200;-81
2023/12/08 05:48:11;;;;;;;11.93;8.25;;;;;;;3.48;70.32;101304.00;4971941;28;20060;-81
2023/12/08 05:50:41;;;;;;;12.35;8.65;;;;;;;3.13;70.56;101257.50;4973792;28;20456;-80
2023/12/08 05:53:13;;;;;;;15.70;8.45;;;;;;;3.71;70.73;101361.47;4970768;28;20109;-81
2023/12/08 05:55:43;;;;;;;11.10;8.95;;;;;;;3.90;71.47;101377.19;4975156;28;20050;-82
2023/12/08 05:58:10;;;;;;;10.60;9.43;;;;;;;3.88;71.14;101371.16;4978494;28;20124;-81
2023/12/08 06:00:36;;;;;;;14.88;9.95;;;;;;;3.75;70.78;101352.53;4973195;28;20054;-80
2023/12/08 06:03:03;;;;;;;15.32;9.77;;;;;;;3.76;70.52;101353.38;4950826;28;20136;-82
2023/12/08 06:05:30;;;;;;;12.05;9.43;;;;;;;3.49;70.71;101314.41;4951462;28;20129;-81
2023/12/08 06:07:57;;;;;;;12.93;9.98;;;;;;;3.53;71.08;101326.47;4943336;28;20519;-82
2023/12/08 06:10:24;;;;;;;13.85;10.15;;;;;;;2.67;71.01;101203.72;4951245;28;20069;-80
2023/12/08 06:12:57;;;;;;;13.98;10.43;;;;;;;3.50;71.20;101333.66;4962795;28;20229;-80
2023/12/08 06:15:24;;;;;;;16.48;11.73;;;;;;;3.68;71.20;101360.78;4996284;28;20392;-81
2023/12/08 06:17:53;;;;;;;19.02;12.25;;;;;;;3.20;71.16;101292.16;4968636;28;20573;-82
2023/12/08 06:20:21;;;;;;;18.25;13.07;;;;;;;3.41;70.98;101317.38;4997267;28;20053;-81
2023/12/08 06:22:47;;;;;;;17.92;11.38;;;;;;;3.60;71.07;101359.38;4972351;28;20054;-82
2023/12/08 06:25:15;;;;;;;15.88;11.63;;;;;;;2.60;70.93;101176.97;4977520;28;20061;-80
2023/12/08 06:27:45;;;;;;;17.30;11.48;;;;;;;3.72;71.26;101368.44;4974530;28;20058;-81
2023/12/08 06:30:12;;;;;;;18.70;12.07;;;;;;;3.66;71.52;101367.88;4983320;28;20054;-81
2023/12/08 06:32:40;;;;;;;22.65;13.27;;;;;;;3.65;71.27;101367.03;4991950;28;20053;-82
2023/12/08 06:35:07;;;;;;;15.93;11.93;;;;;;;3.41;71.14;101340.16;4958093;28;20108;-83
2023/12/08 06:37:35;;;;;;;18.75;12.20;;;;;;;3.43;71.90;101351.44;4970815;28;20332;-80
2023/12/08 06:40:04;;;;;;;20.25;13.55;;;;;;;3.49;71.76;101351.16;4959569;28;20381;-82
2023/12/08 06:42:32;;;;;;;17.83;12.98;;;;;;;3.30;72.15;101310.94;4958170;28;20271;-81
2023/12/08 06:44:59;;;;;;;21.13;13.40;;;;;;;3.64;72.69;101355.69;4963236;28;20053;-81
2023/12/08 06:47:28;;;;;;;16.92;13.30;;;;;;;3.69;72.32;101351.97;4979918;28;20048;-82
2023/12/08 06:49:55;;;;;;;18.35;12.65;;;;;;;3.61;72.29;101324.31;4976803;28;20049;-81
2023/12/08 06:52:22;;;;;;;17.75;12.50;;;;;;;3.90;72.19;101365.84;4966290;28;20491;-80
2023/12/08 06:54:49;;;;;;;21.25;14.05;;;;;;;3.90;71.78;101360.59;4958360;28;20050;-82
2023/12/08 06:57:15;;;;;;;23.52;13.77;;;;;;;3.82;71.41;101337.34;4950732;28;20447;-82
2023/12/08 06:59:42;;;;;;;22.45;13.73;;;;;;;3.86;71.73;101333.63;4958177;28;20046;-81
2023/12/08 07:02:09;;;;;;;16.42;12.30;;;;;;;3.91;71.49;101334.25;4977783;28;20058;-81
2023/12/08 07:04:36;;;;;;;16.92;11.93;;;;;;;3.96;71.69;101341.91;4968318;28;20555;-82
2023/12/08 07:07:03;;;;;;;24.40;12.52;;;;;;;4.03;71.06;101340.69;4974818;28;20045;-82
2023/12/08 07:09:30;;;;;;;16.42;12.20;;;;;;;3.67;71.17;101288.19;4974042;28;20083;-81
2023/12/08 07:11:56;;;;;;;19.25;12.93;;;;;;;3.83;71.50;101313.59;4976644;28;20485;-81
2023/12/08 07:14:30;;;;;;;18.15;12.93;;;;;;;4.01;71.24;101343.38;4990479;28;20127;-82
2023/12/08 07:16:57;;;;;;;16.65;11.88;;;;;;;4.04;71.07;101343.22;4973532;28;20046;-82
2023/12/08 07:19:26;;;;;;;15.07;12.38;;;;;;;3.98;71.29;101340.91;4965235;28;20082;-82
2023/12/08 07:21:53;;;;;;;22.73;11.88;;;;;;;3.80;70.75;101310.28;4960559;28;20128;-81
2023/12/08 07:24:21;;;;;;;16.10;11.48;;;;;;;3.93;70.57;101355.19;4953743;28;20043;-82
2023/12/08 07:26:54;;;;;;;23.10;13.40;;;;;;;3.79;70.88;101342.75;4958548;28;20377;-82
2023/12/08 07:29:23;;;;;;;19.20;13.38;;;;;;;3.87;71.50;101351.09;4951852;28;20141;-82
2023/12/08 07:31:50;;;;;;;17.30;13.32;;;;;;;3.86;71.62;101341.53;4948096;28;20120;-81
2023/12/08 07:34:17;;;;;;;14.85;11.88;;;;;;;3.94;71.31;101355.13;4966591;28;20050;-81
2023/12/08 07:36:47;;;;;;;22.42;12.73;;;;;;;3.89;70.94;101348.41;4950122;28;20058;-81
2023/12/08 07:39:26;;;;;;;15.48;12.05;;;;;;;3.87;71.27;101351.09;4983917;28;20136;-82
2023/12/08 07:41:53;;;;;;;15.00;12.25;;;;;;;3.94;71.24;101355.13;4986972;28;20859;-81
2023/12/08 07:44:28;;;;;;;18.83;12.85;;;;;;;4.12;71.41;101373.53;4963028;28;20384;-83
2023/12/08 07:46:55;;;;;;;20.05;12.50;;;;;;;4.06;70.94;101346.63;4962072;28;20042;-83
2023/12/08 07:49:27;;;;;;;19.73;13.13;;;;;;;4.18;71.07;101365.34;4976574;28;20652;-82
2023/12/08 07:51:55;;;;;;;18.10;12.27;;;;;;;3.94;71.08;101307.84;4965091;28;20115;-84
2023/12/08 07:54:22;;;;;;;21.48;12.60;;;;;;;4.48;70.30;101362.94;4951830;28;20411;-83
2023/12/08 07:56:52;;;;;;;17.60;12.02;;;;;;;4.45;70.47;101363.94;4966835;28;20077;-82
2023/12/08 07:59:19;;;;;;;16.67;11.90;;;;;;;4.48;70.19;101355.88;4977276;28;20525;-83
2023/12/08 08:01:46;;;;;;;16.42;12.40;;;;;;;4.20;70.87;101321.41;4959987;28;20484;-83
2023/12/08 08:04:14;;;;;;;21.85;13.95;;;;;;;4.38;70.19;101351.19;4962582;28;20046;-82
2023/12/08 08:06:40;;;;;;;17.05;13.10;;;;;;;4.37;70.85;101360.88;4985838;28;20061;-82
2023/12/08 08:09:10;;;;;;;18.08;12.65;;;;;;;4.25;71.21;101358.84;4989817;28;20131;-81
2023/12/08 08:11:37;;;;;;;21.80;12.80;;;;;;;3.84;70.93;101285.59;4945153;28;20054;-82
2023/12/08 08:14:13;;;;;;;21.40;13.30;;;;;;;3.78;70.55;101262.22;4993512;28;20159;-81
2023/12/08 08:16:45;;;;;;;18.45;13.88;;;;;;;4.00;70.80;101302.25;4977892;28;20319;-82
2023/12/08 08:19:16;;;;;;;24.42;14.05;;;;;;;4.28;71.15;101345.56;4963932;28;20213;-81
2023/12/08 08:21:44;;;;;;;20.23;14.70;;;;;;;4.50;70.55;101375.06;4957097;28;20050;-82
2023/12/08 08:24:30;;;;;;;24.48;14.02;;;;;;;4.57;70.65;101374.78;4966640;28;20145;-82
2023/12/08 08:27:02;;;;;;;21.98;13.70;;;;;;;4.59;70.32;101351.88;4992093;28;20041;-82
2023/12/08 08:29:30;;;;;;;20.13;14.45;;;;;;;4.73;69.48;101375.66;5000803;28;20064;-82
2023/12/08 08:32:01;;;;;;;18.30;13.02;;;;;;;4.50;69.14;101346.16;4963902;28;20453;-83
2023/12/08 08:34:29;;;;;;;17.42;13.43;;;;;;;4.66;68.54;101366.38;4969582;28;20046;-83
2023/12/08 08:37:00;;;;;;;24.27;12.63;;;;;;;4.61;67.85;101365.78;4971020;28;20046;-83
2023/12/08 08:39:27;;;;;;;18.38;13.20;;;;;;;4.34;68.64;101323.34;4960534;28;20052;-82
2023/12/08 08:41:55;;;;;;;17.67;12.45;;;;;;;4.63;69.32;101377.06;4977462;28;20548;-82
2023/12/08 08:44:22;;;;;;;20.42;13.73;;;;;;;4.75;68.60;101394.84;4970894;28;20484;-82
2023/12/08 08:46:49;;;;;;;16.05;12.88;;;;;;;4.72;68.27;101402.91;4966761;28;20066;-82
2023/12/08 08:49:17;;;;;;;16.55;13.32;;;;;;;4.70;68.72;101399.50;4967972;28;20145;-83
2023/12/08 08:51:44;;;;;;;20.08;13.48;;;;;;;4.82;68.39;101409.38;4963528;28;20046;-83
2023/12/08 08:54:19;;;;;;;19.92;13.60;;;;;;;4.84;68.30;101407.53;4908216;28;20213;-83
2023/12/08 08:56:55;;;;;;;21.20;14.65;;;;;;;4.86;68.36;101410.09;4939718;28;20383;-83
2023/12/08 08:59:25;;;;;;;20.15;14.20;;;;;;;4.85;68.32;101405.75;4953499;28;20633;-83
2023/12/08 09:01:51;;;;;;;21.38;14.95;;;;;;;4.92;69.15;101417.66;4951992;28;20069;-82
2023/12/08 09:04:19;;;;;;;22.42;15.55;;;;;;;4.79;69.17;101388.50;4949361;28;20473;-81
2023/12/08 09:06:46;;;;;;;20.92;14.68;;;;;;;4.74;69.44;101390.53;4967117;28;20080;-83
2023/12/08 09:09:13;;;;;;;19.75;15.02;;;;;;;4.65;68.71;101372.59;4995225;28;20045;-82
2023/12/08 09:11:40;;;;;;;21.20;14.73;;;;;;;4.87;69.61;101419.66;4992991;28;20056;-82
2023/12/08 09:14:10;;;;;;;18.38;14.52;;;;;;;4.48;69.43;101350.63;5002050;28;20148;-83
2023/12/08 09:16:39;;;;;;;19.27;13.52;;;;;;;4.86;69.66;101418.81;4988507;28;20054;-81
2023/12/08 09:19:08;;;;;;;16.05;12.65;;;;;;;4.75;68.87;101386.94;4974779;28;20053;-81
2023/12/08 09:21:37;;;;;;;17.60;12.80;;;;;;;4.74;70.20;101416.84;4976530;28;20498;-80
2023/12/08 09:24:17;;;;;;;18.98;13.48;;;;;;;4.23;69.72;101321.28;4971272;28;20479;-82
2023/12/08 09:26:44;;;;;;;16.88;13.18;;;;;;;4.76;69.32;101420.25;4973170;28;20050;-82
2023/12/08 09:29:11;;;;;;;19.17;13.88;;;;;;;4.17;68.77;101311.06;4970308;28;20859;-83
2023/12/08 09:31:38;;;;;;;22.15;14.15;;;;;;;4.77;68.85;101405.28;4972160;28;20046;-82
2023/12/08 09:34:05;;;;;;;22.17;14.88;;;;;;;4.69;68.42;101397.81;4965582;28;20122;-81
2023/12/08 09:36:33;;;;;;;20.33;14.65;;;;;;;4.04;68.83;101309.06;4975880;28;20053;-82
2023/12/08 09:39:00;;;;;;;20.02;14.82;;;;;;;4.70;68.50;101418.75;4965969;28;20054;-80
2023/12/08 09:41:30;;;;;;;22.30;15.18;;;;;;;4.50;68.36;101356.66;4966965;28;20384;-82
2023/12/08 09:44:06;;;;;;;19.02;14.40;;;;;;;4.68;68.14;101375.06;4966091;28;20054;-82
2023/12/08 09:46:34;;;;;;;17.45;14.15;;;;;;;4.86;67.33;101399.56;4969400;28;20451;-82
2023/12/08 09:49:08;;;;;;;17.02;13.73;;;;;;;4.84;67.58;101393.53;4969917;28;20498;-80
2023/12/08 09:51:40;;;;;;;20.42;14.68;;;;;;;4.74;67.39;101385.25;4967767;28;20495;-82
2023/12/08 09:54:11;;;;;;;23.27;15.38;;;;;;;4.72;66.84;101387.13;4958976;28;20381;-82
2023/12/08 09:56:38;;;;;;;21.20;15.30;;;;;;;4.73;66.74;101367.75;4972576;28;20070;-80
2023/12/08 09:59:07;;;;;;;23.63;17.77;;;;;;;4.88;66.77;101388.03;4966274;28;20440;-81
2023/12/08 10:01:34;;;;;;;25.90;18.60;;;;;;;4.69;66.81;101351.31;4965669;28;20050;-81
2023/12/08 10:04:01;;;;;;;25.52;19.75;;;;;;;4.66;67.17;101369.88;4991762;28;20056;-82
2023/12/08 10:06:29;;;;;;;23.05;18.83;;;;;;;4.61;67.23;101347.38;4974613;28;20455;-83
2023/12/08 10:09:03;;;;;;;25.95;19.58;;;;;;;4.61;68.08;101374.53;4988679;28;20415;-80
2023/12/08 10:11:33;;;;;;;34.63;20.70;;;;;;;4.64;68.70;101374.38;4976888;28;20096;-81
2023/12/08 10:14:03;;;;;;;30.23;20.27;;;;;;;4.15;68.75;101291.91;5006642;28;20048;-81
2023/12/08 10:16:33;;;;;;;28.80;20.85;;;;;;;4.67;69.02;101365.47;4997241;28;20049;-82
2023/12/08 10:19:07;;;;;;;27.20;20.90;;;;;;;4.80;68.43;101374.41;5000126;28;20049;-81
2023/12/08 10:21:36;;;;;;;28.90;21.23;;;;;;;4.87;68.74;101367.91;4996052;28;20068;-81
2023/12/08 10:24:07;;;;;;;32.65;23.10;;;;;;;4.92;68.74;101363.22;4964406;28;20089;-80
2023/12/08 10:26:35;;;;;;;36.83;24.92;;;;;;;5.01;68.25;101356.66;4979898;28;20246;-80
2023/12/08 10:29:02;;;;;;;30.63;23.92;;;;;;;4.89;68.10;101337.09;4974818;28;20050;-81
2023/12/08 10:31:31;;;;;;;36.42;25.23;;;;;;;4.93;69.26;101349.16;4971953;28;20378;-81
2023/12/08 10:33:58;;;;;;;32.80;26.08;;;;;;;4.97;68.94;101343.72;4973586;28;20088;-81
2023/12/08 10:36:32;;;;;;;35.15;26.67;;;;;;;4.84;69.48;101333.84;4968084;28;20547;-83
2023/12/08 10:38:59;;;;;;;35.63;26.63;;;;;;;4.59;69.57;101270.34;4954248;28;20054;-81
2023/12/08 10:41:29;;;;;;;37.80;24.77;;;;;;;4.98;70.09;101329.66;4974228;28;20145;-80
2023/12/08 10:43:56;;;;;;;31.42;24.27;;;;;;;5.06;70.24;101332.72;4961958;28;20054;-81
2023/12/08 10:46:24;;;;;;;33.92;25.85;;;;;;;4.87;70.31;101280.22;4965148;28;20058;-81
2023/12/08 10:48:52;;;;;;;32.65;25.23;;;;;;;4.77;70.29;101258.81;4981539;28;20048;-81
2023/12/08 10:51:24;;;;;;;36.60;26.00;;;;;;;5.08;70.57;101300.13;4971681;28;20111;-81
2023/12/08 10:53:51;;;;;;;37.40;27.40;;;;;;;4.88;70.51;101256.47;4958015;28;20085;-81
2023/12/08 10:56:21;;;;;;;32.90;26.58;;;;;;;4.93;71.10;101267.59;4969807;28;20050;-79
2023/12/08 10:59:01;;;;;;;39.17;27.50;;;;;;;5.35;71.25;101324.06;4966248;28;20133;-83
2023/12/08 11:01:32;;;;;;;35.67;27.10;;;;;;;5.39;71.18;101326.50;4970093;28;20149;-82
2023/12/08 11:04:07;;;;;;;41.40;29.17;;;;;;;5.23;71.59;101298.41;4921328;28;20508;-80
2023/12/08 11:06:41;;;;;;;37.25;29.70;;;;;;;4.80;72.68;101236.78;4978849;28;20459;-81
2023/12/08 11:09:12;;;;;;;36.97;29.73;;;;;;;5.29;72.48;101302.47;4996947;28;20083;-81
2023/12/08 11:11:51;;;;;;;40.17;30.65;;;;;;;4.92;73.52;101243.97;4997286;28;20915;-82
2023/12/08 11:14:42;;;;;;;42.42;31.58;;;;;;;5.34;73.14;101306.56;5000605;28;20241;-81
2023/12/08 11:17:33;;;;;;;42.00;33.05;;;;;;;5.50;72.88;101295.16;4999530;28;20057;-82
2023/12/08 11:20:07;;;;;;;46.83;35.00;;;;;;;5.33;73.99;101299.59;4985624;28;20139;-82
2023/12/08 11:22:34;;;;;;;47.58;34.63;;;;;;;5.25;73.89;101279.91;4988940;28;20073;-81
2023/12/08 11:25:14;;;;;;;45.60;36.33;;;;;;;5.26;75.10;101284.22;4986044;28;20153;-82
2023/12/08 11:28:11;;;;;;;50.10;37.35;;;;;;;5.30;74.99;101291.03;4990107;28;20381;-82
2023/12/08 11:31:13;;;;;;;45.15;36.58;;;;;;;5.28;74.79;101280.56;4970898;28;20050;-82